Time;durP1;ratioP1;P1;durP2;ratioP2;P2;SDS_P1;SDS_P2;PMS_P1;PMS_P2;Temp;Humidity;BMP_temperature;BMP_pressure;BME280_temperature;BME280_humidity;BME280_pressure;Samples;Min_cycle;Max_cycle;Signal;HPM_P1;HPM_P2
2020/12/10 00:01:47;;;;;;;35.65;15.98;;;4.30;99.90;;;;;;5063292;28;20028;-70
2020/12/10 00:04:14;;;;;;;35.15;15.90;;;4.30;99.90;;;;;;5064903;28;20386;-70
2020/12/10 00:06:42;;;;;;;33.25;17.42;;;4.30;99.90;;;;;;5064235;28;20031;-70
2020/12/10 00:09:08;;;;;;;32.67;15.40;;;4.30;99.90;;;;;;5057918;28;20041;-70
2020/12/10 00:11:35;;;;;;;35.10;16.38;;;4.20;99.90;;;;;;5061612;28;20032;-70
2020/12/10 00:14:01;;;;;;;36.00;16.60;;;4.10;99.90;;;;;;5049716;28;20032;-70
2020/12/10 00:16:27;;;;;;;29.08;15.25;;;4.10;99.90;;;;;;5056032;28;20496;-70
2020/12/10 00:18:53;;;;;;;38.28;17.15;;;3.90;99.90;;;;;;5056766;28;20033;-70
2020/12/10 00:21:22;;;;;;;34.25;16.20;;;3.90;99.90;;;;;;5065283;28;20177;-70
2020/12/10 00:23:49;;;;;;;36.88;16.73;;;3.80;99.90;;;;;;5062773;28;20032;-70
2020/12/10 00:26:15;;;;;;;35.80;16.38;;;3.70;99.90;;;;;;5056332;28;20102;-70
2020/12/10 00:28:41;;;;;;;34.55;16.77;;;3.70;99.90;;;;;;5062152;28;20052;-70
2020/12/10 00:31:09;;;;;;;33.22;16.10;;;3.70;99.90;;;;;;5062518;28;21528;-70
2020/12/10 00:33:37;;;;;;;35.22;16.70;;;3.70;99.90;;;;;;5061593;28;20159;-70
2020/12/10 00:36:05;;;;;;;33.33;15.73;;;3.60;99.90;;;;;;5057681;28;20103;-70
2020/12/10 00:38:31;;;;;;;35.67;16.55;;;3.60;99.90;;;;;;5069526;28;20166;-70
2020/12/10 00:40:57;;;;;;;36.72;16.15;;;3.50;99.90;;;;;;5061906;28;20540;-70
2020/12/10 00:43:22;;;;;;;32.78;16.33;;;3.40;99.90;;;;;;5052969;28;20032;-70
2020/12/10 00:45:48;;;;;;;36.25;17.13;;;3.40;99.90;;;;;;5051711;28;20028;-70
2020/12/10 00:48:14;;;;;;;37.33;17.60;;;3.40;99.90;;;;;;5051180;28;20071;-70
2020/12/10 00:50:40;;;;;;;37.75;17.05;;;3.30;99.90;;;;;;5062513;28;20370;-70
2020/12/10 00:53:06;;;;;;;39.47;16.52;;;3.30;99.90;;;;;;5054562;28;20029;-70
2020/12/10 00:55:31;;;;;;;40.42;17.13;;;3.30;99.90;;;;;;5064697;28;20012;-70
2020/12/10 00:57:57;;;;;;;38.08;17.45;;;3.30;99.90;;;;;;5059404;28;20386;-70
2020/12/10 01:00:23;;;;;;;36.88;18.15;;;3.20;99.90;;;;;;5054940;28;20118;-70
2020/12/10 01:02:48;;;;;;;37.53;17.27;;;3.10;99.90;;;;;;5067664;28;20104;-70
2020/12/10 01:05:14;;;;;;;38.42;17.15;;;3.10;99.90;;;;;;5064062;28;20111;-70
2020/12/10 01:07:40;;;;;;;42.17;18.70;;;2.90;99.90;;;;;;5064040;28;20020;-70
2020/12/10 01:10:06;;;;;;;39.40;17.85;;;2.90;99.90;;;;;;5063855;28;20101;-70
2020/12/10 01:12:32;;;;;;;37.50;16.58;;;2.80;99.90;;;;;;5057066;28;20560;-70
2020/12/10 01:14:59;;;;;;;37.78;17.77;;;2.70;99.90;;;;;;5056820;28;20138;-70
2020/12/10 01:17:24;;;;;;;37.17;17.67;;;2.70;99.90;;;;;;5058681;28;20075;-70
2020/12/10 01:19:50;;;;;;;41.17;17.63;;;2.60;99.90;;;;;;5057255;28;20033;-70
2020/12/10 01:22:16;;;;;;;42.03;18.55;;;2.50;99.90;;;;;;5067306;28;20028;-70
2020/12/10 01:24:41;;;;;;;37.95;18.63;;;2.40;99.90;;;;;;5062026;28;20381;-70
2020/12/10 01:27:07;;;;;;;33.75;16.63;;;2.30;99.90;;;;;;5064411;28;20032;-70
2020/12/10 01:29:33;;;;;;;38.53;17.58;;;2.20;99.90;;;;;;5070599;28;20021;-70
2020/12/10 01:31:58;;;;;;;41.83;18.80;;;2.20;99.90;;;;;;5060594;28;20103;-70
2020/12/10 01:34:24;;;;;;;35.90;17.40;;;2.30;99.90;;;;;;5057452;28;20028;-70
2020/12/10 01:36:50;;;;;;;42.53;20.35;;;2.40;99.90;;;;;;5059966;28;20103;-70
2020/12/10 01:39:15;;;;;;;38.63;18.15;;;2.30;99.90;;;;;;5059481;28;20040;-70
2020/12/10 01:41:41;;;;;;;41.45;18.48;;;2.20;99.90;;;;;;5063941;28;20491;-69
2020/12/10 01:44:09;;;;;;;40.50;18.38;;;2.30;99.90;;;;;;5061250;28;20449;-70
2020/12/10 01:46:36;;;;;;;36.75;16.95;;;2.30;99.90;;;;;;5060285;28;20025;-70
2020/12/10 01:49:04;;;;;;;39.10;18.75;;;2.20;99.90;;;;;;5062647;28;20025;-70
2020/12/10 01:51:31;;;;;;;49.70;21.30;;;2.30;99.90;;;;;;5067235;28;20017;-70
2020/12/10 01:54:00;;;;;;;40.28;18.77;;;2.30;99.90;;;;;;5061846;28;20031;-69
2020/12/10 01:56:26;;;;;;;39.10;19.45;;;2.30;99.90;;;;;;5056988;28;20142;-70
2020/12/10 01:58:54;;;;;;;39.80;19.52;;;2.30;99.90;;;;;;5066777;28;20110;-69
2020/12/10 02:01:20;;;;;;;38.78;19.20;;;2.20;99.90;;;;;;5071784;28;20603;-69
2020/12/10 02:03:46;;;;;;;41.10;19.75;;;2.10;99.90;;;;;;5057345;28;20033;-70
2020/12/10 02:06:11;;;;;;;35.65;18.90;;;2.10;99.90;;;;;;5059626;28;20039;-69
2020/12/10 02:08:43;;;;;;;38.65;19.08;;;2.20;99.90;;;;;;5065258;28;20025;-69
2020/12/10 02:11:13;;;;;;;38.13;18.63;;;2.20;99.90;;;;;;5062342;28;20024;-69
2020/12/10 02:13:39;;;;;;;35.67;18.48;;;2.30;99.90;;;;;;5060418;28;20021;-69
2020/12/10 02:16:08;;;;;;;34.92;18.05;;;2.30;99.90;;;;;;5058461;28;20025;-69
2020/12/10 02:18:34;;;;;;;35.88;18.27;;;2.20;99.90;;;;;;5057847;28;20114;-70
2020/12/10 02:21:00;;;;;;;37.67;18.17;;;2.30;99.90;;;;;;5065997;28;20025;-69
2020/12/10 02:23:26;;;;;;;45.22;19.42;;;2.30;99.90;;;;;;5065753;28;20029;-70
2020/12/10 02:25:51;;;;;;;43.50;19.00;;;2.30;99.90;;;;;;5065396;28;20032;-69
2020/12/10 02:28:17;;;;;;;43.53;18.60;;;2.30;99.90;;;;;;5065210;28;20377;-70
2020/12/10 02:30:45;;;;;;;40.15;17.75;;;2.40;99.90;;;;;;5059346;28;20507;-70
2020/12/10 02:33:12;;;;;;;39.30;18.73;;;2.30;99.90;;;;;;5059975;28;20131;-69
2020/12/10 02:35:41;;;;;;;38.58;18.38;;;2.30;99.90;;;;;;5059398;28;20075;-69
2020/12/10 02:38:09;;;;;;;39.72;19.23;;;2.30;99.90;;;;;;5060033;28;20036;-70
2020/12/10 02:40:46;;;;;;;40.05;18.15;;;2.40;99.90;;;;;;5065501;28;20127;-70
2020/12/10 02:43:13;;;;;;;32.17;16.77;;;2.30;99.90;;;;;;5067924;28;20017;-70
2020/12/10 02:45:40;;;;;;;37.65;18.27;;;2.30;99.90;;;;;;5067733;28;20033;-69
2020/12/10 02:48:07;;;;;;;35.60;17.92;;;2.20;99.90;;;;;;5061529;28;20027;-69
2020/12/10 02:50:33;;;;;;;37.42;19.17;;;2.20;99.90;;;;;;5059567;28;20025;-70
2020/12/10 02:52:59;;;;;;;38.78;18.00;;;2.20;99.90;;;;;;5066543;28;20032;-70
2020/12/10 02:55:24;;;;;;;36.78;16.80;;;2.20;99.90;;;;;;5070505;28;20033;-69
2020/12/10 02:57:50;;;;;;;32.88;16.92;;;2.10;99.90;;;;;;5059066;28;20112;-69
2020/12/10 03:00:16;;;;;;;40.17;17.95;;;2.10;99.90;;;;;;5062745;28;20029;-69
2020/12/10 03:02:41;;;;;;;41.15;19.67;;;2.10;99.90;;;;;;5059876;28;20025;-70
2020/12/10 03:05:07;;;;;;;40.35;19.30;;;2.10;99.90;;;;;;5061596;28;20027;-70
2020/12/10 03:07:34;;;;;;;42.70;19.45;;;2.10;99.90;;;;;;5063736;28;20048;-70
2020/12/10 03:10:01;;;;;;;47.08;21.35;;;2.10;99.90;;;;;;5064350;28;20071;-70
2020/12/10 03:12:26;;;;;;;47.80;20.88;;;2.10;99.90;;;;;;5061166;28;20036;-70
2020/12/10 03:14:52;;;;;;;43.05;19.75;;;2.10;99.90;;;;;;5065323;28;20032;-69
2020/12/10 03:17:18;;;;;;;39.92;19.48;;;2.20;99.90;;;;;;5062203;28;20485;-69
2020/12/10 03:19:43;;;;;;;43.58;19.30;;;2.10;99.90;;;;;;5057058;28;20052;-70
2020/12/10 03:22:14;;;;;;;54.45;20.58;;;2.10;99.90;;;;;;5058578;28;20478;-69
2020/12/10 03:24:40;;;;;;;43.90;19.35;;;2.10;99.90;;;;;;5057360;28;20032;-70
2020/12/10 03:27:06;;;;;;;43.00;20.27;;;2.00;99.90;;;;;;5063804;28;20029;-70
2020/12/10 03:29:32;;;;;;;43.55;20.00;;;2.10;99.90;;;;;;5059852;28;20032;-70
2020/12/10 03:31:58;;;;;;;37.17;18.42;;;2.00;99.90;;;;;;5061786;28;20027;-70
2020/12/10 03:34:24;;;;;;;44.05;20.35;;;1.80;99.90;;;;;;5067498;28;20024;-70
2020/12/10 03:36:51;;;;;;;35.92;17.67;;;1.80;99.90;;;;;;5055061;28;20032;-70
2020/12/10 03:39:18;;;;;;;44.05;20.42;;;1.90;99.90;;;;;;5060735;28;20036;-70
2020/12/10 03:41:45;;;;;;;44.22;19.95;;;1.90;99.90;;;;;;5064497;28;20028;-70
2020/12/10 03:44:11;;;;;;;39.63;19.35;;;2.00;99.90;;;;;;5067696;28;20028;-70
2020/12/10 03:46:38;;;;;;;43.22;20.73;;;2.00;99.90;;;;;;5060331;28;20021;-70
2020/12/10 03:49:04;;;;;;;42.05;19.95;;;2.00;99.90;;;;;;5063821;28;20017;-70
2020/12/10 03:51:29;;;;;;;37.50;17.92;;;2.00;99.90;;;;;;5064404;28;20107;-70
2020/12/10 03:53:55;;;;;;;41.92;18.88;;;1.90;99.90;;;;;;5067499;28;20104;-70
2020/12/10 03:56:20;;;;;;;33.72;17.38;;;1.70;99.90;;;;;;5059828;28;20037;-70
2020/12/10 03:58:46;;;;;;;38.03;18.65;;;1.60;99.90;;;;;;5055946;28;20036;-70
2020/12/10 04:01:12;;;;;;;35.67;17.90;;;1.70;99.90;;;;;;5060877;28;20020;-71
2020/12/10 04:03:37;;;;;;;38.47;18.20;;;1.70;99.90;;;;;;5057821;28;20028;-71
2020/12/10 04:06:03;;;;;;;39.92;18.17;;;1.80;99.90;;;;;;5056398;28;20474;-71
2020/12/10 04:08:28;;;;;;;42.08;19.20;;;1.80;99.90;;;;;;5052875;28;20413;-71
2020/12/10 04:10:54;;;;;;;36.30;17.08;;;1.90;99.90;;;;;;5065572;28;20143;-71
2020/12/10 04:13:20;;;;;;;35.28;17.02;;;1.90;99.90;;;;;;5059163;28;20031;-71
2020/12/10 04:15:45;;;;;;;35.13;17.13;;;1.90;99.90;;;;;;5059017;28;20473;-71
2020/12/10 04:18:11;;;;;;;34.88;16.33;;;1.90;99.90;;;;;;5057328;28;20442;-71
2020/12/10 04:20:37;;;;;;;39.33;17.10;;;1.80;99.90;;;;;;5059228;28;20033;-71
2020/12/10 04:23:03;;;;;;;33.58;17.15;;;1.80;99.90;;;;;;5061564;28;20036;-71
2020/12/10 04:25:28;;;;;;;36.90;16.77;;;1.70;99.90;;;;;;5058129;28;20103;-71
2020/12/10 04:27:54;;;;;;;34.50;17.10;;;1.80;99.90;;;;;;5060600;28;20112;-71
2020/12/10 04:30:22;;;;;;;37.92;18.40;;;1.70;99.90;;;;;;5058551;28;20028;-71
2020/12/10 04:32:48;;;;;;;34.67;16.67;;;1.70;99.90;;;;;;5060100;28;20021;-71
2020/12/10 04:35:14;;;;;;;32.78;16.65;;;1.70;99.90;;;;;;5068356;28;20024;-71
2020/12/10 04:37:41;;;;;;;34.78;17.08;;;1.70;99.90;;;;;;5060140;28;20024;-71
2020/12/10 04:40:07;;;;;;;32.75;16.52;;;1.80;99.90;;;;;;5057271;28;20041;-71
2020/12/10 04:42:34;;;;;;;35.70;17.20;;;1.80;99.90;;;;;;5062606;28;20028;-71
2020/12/10 04:44:59;;;;;;;33.25;16.25;;;1.70;99.90;;;;;;5054765;28;20036;-71
2020/12/10 04:47:28;;;;;;;37.70;17.83;;;1.70;99.90;;;;;;5060156;28;20436;-71
2020/12/10 04:49:55;;;;;;;32.60;15.48;;;1.70;99.90;;;;;;5066821;28;20035;-71
2020/12/10 04:52:22;;;;;;;36.92;17.20;;;1.70;99.90;;;;;;5063631;28;20091;-71
2020/12/10 04:54:49;;;;;;;34.92;17.60;;;1.70;99.90;;;;;;5060142;28;20025;-71
2020/12/10 04:57:17;;;;;;;39.38;17.85;;;1.70;99.90;;;;;;5064557;28;20477;-71
2020/12/10 04:59:42;;;;;;;39.10;19.02;;;1.70;99.90;;;;;;5063616;28;20036;-71
2020/12/10 05:02:12;;;;;;;35.10;16.88;;;1.70;99.90;;;;;;5057980;28;20021;-71
2020/12/10 05:04:40;;;;;;;36.63;18.15;;;1.70;99.90;;;;;;5062601;28;20020;-71
2020/12/10 05:07:06;;;;;;;33.92;16.52;;;1.60;99.90;;;;;;5058324;28;20017;-71
2020/12/10 05:09:32;;;;;;;38.42;17.80;;;1.60;99.90;;;;;;5058274;28;20119;-71
2020/12/10 05:11:58;;;;;;;37.42;18.67;;;1.60;99.90;;;;;;5061362;28;20561;-71
2020/12/10 05:14:24;;;;;;;35.63;18.23;;;1.60;99.90;;;;;;5056575;28;20111;-71
2020/12/10 05:17:13;;;;;;;38.47;18.42;;;1.60;99.90;;;;;;5061569;28;20119;-71
2020/12/10 05:19:39;;;;;;;32.97;16.52;;;1.60;99.90;;;;;;5056953;28;20047;-71
2020/12/10 05:22:07;;;;;;;36.38;16.13;;;1.60;99.90;;;;;;5058306;28;20025;-71
2020/12/10 05:24:33;;;;;;;32.58;15.95;;;1.60;99.90;;;;;;5060772;28;20054;-71
2020/12/10 05:27:22;;;;;;;34.42;15.30;;;1.70;99.90;;;;;;5056607;28;20517;-71
2020/12/10 05:29:50;;;;;;;30.65;15.70;;;1.60;99.90;;;;;;5054270;28;20031;-70
2020/12/10 05:32:37;;;;;;;34.03;16.60;;;1.70;99.90;;;;;;5060789;28;20025;-71
2020/12/10 05:35:19;;;;;;;32.92;16.35;;;1.80;99.90;;;;;;5061831;28;20131;-71
2020/12/10 05:37:45;;;;;;;37.50;16.75;;;1.70;99.90;;;;;;5058402;28;20029;-71
2020/12/10 05:40:11;;;;;;;33.00;16.52;;;1.60;99.90;;;;;;5056554;28;20060;-71
2020/12/10 05:42:42;;;;;;;32.70;16.63;;;1.60;99.90;;;;;;5064469;28;20389;-71
2020/12/10 05:45:21;;;;;;;33.03;16.52;;;1.70;99.90;;;;;;5061309;28;20036;-71
2020/12/10 05:47:49;;;;;;;36.63;16.38;;;1.60;99.90;;;;;;5061636;28;20106;-71
2020/12/10 05:50:25;;;;;;;31.63;16.38;;;1.60;99.90;;;;;;5066188;28;20028;-71
2020/12/10 05:53:09;;;;;;;37.88;16.70;;;1.60;99.90;;;;;;5060571;28;20021;-71
2020/12/10 05:55:37;;;;;;;35.30;16.38;;;1.60;99.90;;;;;;5056399;28;20025;-71
2020/12/10 05:58:04;;;;;;;33.87;15.83;;;1.70;99.90;;;;;;5053913;28;20113;-71
2020/12/10 06:00:30;;;;;;;40.95;16.98;;;1.70;99.90;;;;;;5057057;28;20029;-71
2020/12/10 06:02:56;;;;;;;31.92;17.02;;;1.70;99.90;;;;;;5059340;28;20029;-71
2020/12/10 06:05:24;;;;;;;28.48;15.38;;;1.70;99.90;;;;;;5065216;28;20358;-71
2020/12/10 06:08:19;;;;;;;40.33;16.25;;;1.70;99.90;;;;;;5059373;28;20679;-71
2020/12/10 06:10:45;;;;;;;37.22;16.15;;;1.70;99.90;;;;;;5047744;28;20056;-71
2020/12/10 06:13:11;;;;;;;37.17;17.13;;;1.60;99.90;;;;;;5068488;28;20020;-72
2020/12/10 06:15:37;;;;;;;31.33;17.20;;;1.60;99.90;;;;;;5068226;28;20108;-71
2020/12/10 06:18:15;;;;;;;38.30;17.00;;;1.60;99.90;;;;;;5057936;28;20100;-72
2020/12/10 06:20:45;;;;;;;32.35;15.63;;;1.50;99.90;;;;;;5066603;28;20036;-71
2020/12/10 06:23:23;;;;;;;33.63;16.10;;;1.50;99.90;;;;;;5058583;28;20066;-72
2020/12/10 06:25:50;;;;;;;30.45;14.88;;;1.60;99.90;;;;;;5067528;28;20044;-72
2020/12/10 06:28:17;;;;;;;31.52;15.18;;;1.60;99.90;;;;;;5061052;28;20037;-71
2020/12/10 06:30:42;;;;;;;31.38;15.73;;;1.60;99.90;;;;;;5063334;28;20029;-72
2020/12/10 06:33:08;;;;;;;32.83;16.35;;;1.60;99.90;;;;;;5054075;28;20090;-72
2020/12/10 06:35:35;;;;;;;30.95;14.60;;;1.60;99.90;;;;;;5058053;28;20115;-71
2020/12/10 06:38:06;;;;;;;32.33;16.33;;;1.70;99.90;;;;;;5062740;28;20484;-71
2020/12/10 06:40:37;;;;;;;28.88;14.70;;;1.60;99.90;;;;;;5058127;28;20045;-71
2020/12/10 06:43:07;;;;;;;33.97;16.02;;;1.60;99.90;;;;;;5059243;28;20028;-71
2020/12/10 06:45:41;;;;;;;29.95;14.40;;;1.70;99.90;;;;;;5068164;28;20052;-71
2020/12/10 06:48:11;;;;;;;29.60;13.57;;;1.60;99.90;;;;;;5064007;28;20370;-73
2020/12/10 06:50:39;;;;;;;29.02;13.82;;;1.60;99.90;;;;;;5063682;28;20020;-72
2020/12/10 06:53:07;;;;;;;28.25;14.13;;;1.60;99.90;;;;;;5058885;28;20024;-72
2020/12/10 06:55:33;;;;;;;23.27;11.45;;;1.60;99.90;;;;;;5056407;28;20088;-72
2020/12/10 06:58:03;;;;;;;28.05;13.38;;;1.70;99.90;;;;;;5056769;28;20111;-72
2020/12/10 07:00:46;;;;;;;26.50;12.98;;;1.70;99.90;;;;;;5061114;28;20033;-71
2020/12/10 07:03:23;;;;;;;29.17;13.98;;;1.70;99.90;;;;;;5055689;28;20052;-71
2020/12/10 07:05:48;;;;;;;30.35;14.00;;;1.70;99.90;;;;;;5063378;28;20063;-72
2020/12/10 07:08:16;;;;;;;31.15;14.15;;;1.60;99.90;;;;;;5064916;28;20048;-72
2020/12/10 07:10:44;;;;;;;26.45;13.18;;;1.60;99.90;;;;;;5062368;28;20040;-72
2020/12/10 07:13:14;;;;;;;30.90;14.63;;;1.70;99.90;;;;;;5069208;28;20070;-73
2020/12/10 07:15:40;;;;;;;29.80;15.10;;;1.70;99.90;;;;;;5067196;28;20025;-72
2020/12/10 07:18:06;;;;;;;27.80;13.85;;;1.60;99.90;;;;;;5059170;28;20114;-73
2020/12/10 07:20:33;;;;;;;31.33;13.63;;;1.60;99.90;;;;;;5062810;28;20028;-72
2020/12/10 07:23:00;;;;;;;29.08;14.55;;;1.60;99.90;;;;;;5058224;28;20043;-73
2020/12/10 07:25:26;;;;;;;26.17;13.38;;;1.60;99.90;;;;;;5059325;28;20469;-73
2020/12/10 07:27:52;;;;;;;30.08;14.85;;;1.70;99.90;;;;;;5059816;28;20091;-73
2020/12/10 07:30:19;;;;;;;27.83;14.13;;;1.60;99.90;;;;;;5064590;28;21030;-71
2020/12/10 07:32:45;;;;;;;31.42;15.27;;;1.50;99.90;;;;;;5057043;28;20021;-72
2020/12/10 07:35:12;;;;;;;25.50;12.80;;;1.50;99.90;;;;;;5064466;28;20016;-73
2020/12/10 07:37:39;;;;;;;31.63;13.93;;;1.60;99.90;;;;;;5053390;28;20071;-71
2020/12/10 07:40:16;;;;;;;26.75;12.85;;;1.50;99.90;;;;;;5062441;28;20043;-72
2020/12/10 07:42:42;;;;;;;26.67;12.75;;;1.50;99.90;;;;;;5064227;28;20025;-71
2020/12/10 07:45:13;;;;;;;28.30;12.90;;;1.50;99.90;;;;;;5064436;28;20060;-72
2020/12/10 07:47:39;;;;;;;27.70;12.98;;;1.50;99.90;;;;;;5063097;28;20016;-70
2020/12/10 07:50:23;;;;;;;25.65;11.88;;;1.50;99.90;;;;;;5057165;28;20068;-71
2020/12/10 07:52:54;;;;;;;28.48;12.82;;;1.50;99.90;;;;;;5060918;28;20122;-72
2020/12/10 07:55:25;;;;;;;25.98;13.15;;;1.50;99.90;;;;;;5055255;28;20048;-71
2020/12/10 07:58:06;;;;;;;31.10;13.73;;;1.50;99.90;;;;;;5048378;28;20066;-72
2020/12/10 08:00:33;;;;;;;29.90;12.95;;;1.50;99.90;;;;;;5056640;28;21130;-71
2020/12/10 08:03:19;;;;;;;31.05;14.27;;;1.50;99.90;;;;;;5054481;28;20025;-71
2020/12/10 08:06:14;;;;;;;30.83;14.60;;;1.50;99.90;;;;;;5053580;28;20032;-71
2020/12/10 08:08:43;;;;;;;28.33;12.65;;;1.60;99.90;;;;;;5049119;28;20037;-71
2020/12/10 08:11:15;;;;;;;33.53;13.73;;;1.60;99.90;;;;;;5054075;28;20131;-71
2020/12/10 08:13:53;;;;;;;30.58;13.73;;;1.70;99.90;;;;;;5050876;28;20079;-70
2020/12/10 08:16:18;;;;;;;28.33;12.57;;;1.70;99.90;;;;;;5052328;28;20083;-71
2020/12/10 08:18:44;;;;;;;27.88;13.55;;;1.70;99.90;;;;;;5056283;28;20052;-71
2020/12/10 08:21:10;;;;;;;29.00;13.63;;;1.70;99.90;;;;;;5056123;28;20037;-71
2020/12/10 08:23:45;;;;;;;30.85;14.10;;;1.70;99.90;;;;;;5056747;28;20029;-71
2020/12/10 08:26:13;;;;;;;28.50;12.70;;;1.70;99.90;;;;;;5057521;28;20116;-71
2020/12/10 08:28:50;;;;;;;28.73;12.98;;;1.70;99.90;;;;;;5052473;28;20032;-71
2020/12/10 08:31:19;;;;;;;29.92;13.00;;;1.70;99.90;;;;;;5059034;28;20025;-71
2020/12/10 08:33:45;;;;;;;28.30;13.18;;;1.80;99.90;;;;;;5055690;28;20473;-71
2020/12/10 08:36:21;;;;;;;38.85;15.27;;;1.80;99.90;;;;;;5054234;28;20045;-71
2020/12/10 08:38:51;;;;;;;25.52;13.40;;;1.80;99.90;;;;;;5050030;28;20065;-71
2020/12/10 08:41:23;;;;;;;33.25;15.10;;;1.80;99.90;;;;;;5060977;28;20029;-71
2020/12/10 08:43:53;;;;;;;30.75;14.25;;;1.90;99.90;;;;;;5053008;28;20533;-70
2020/12/10 08:46:19;;;;;;;34.55;15.93;;;1.90;99.90;;;;;;5052281;28;20028;-71
2020/12/10 08:48:45;;;;;;;33.38;15.32;;;2.00;99.90;;;;;;5049689;28;20040;-71
2020/12/10 08:51:10;;;;;;;34.00;14.77;;;2.00;99.90;;;;;;5052694;28;20033;-71
2020/12/10 08:53:44;;;;;;;31.70;15.27;;;1.90;99.90;;;;;;5051035;28;20362;-71
2020/12/10 08:56:18;;;;;;;30.50;14.18;;;2.00;99.90;;;;;;5052826;28;20926;-71
2020/12/10 08:58:44;;;;;;;32.88;14.75;;;2.00;99.90;;;;;;5050714;28;20508;-71
2020/12/10 09:01:10;;;;;;;28.15;13.88;;;2.10;99.90;;;;;;5059619;28;20031;-70
2020/12/10 09:03:35;;;;;;;29.80;14.05;;;2.10;99.90;;;;;;5056096;28;20025;-71
2020/12/10 09:06:01;;;;;;;33.88;14.65;;;2.10;99.90;;;;;;5063473;28;20032;-71
2020/12/10 09:08:27;;;;;;;28.85;14.05;;;2.10;99.90;;;;;;5068074;28;20060;-71
2020/12/10 09:10:52;;;;;;;32.20;15.02;;;2.00;99.90;;;;;;5062535;28;20102;-73
2020/12/10 09:13:18;;;;;;;35.50;16.17;;;2.10;99.90;;;;;;5051822;28;20021;-71
2020/12/10 09:15:44;;;;;;;37.00;16.10;;;2.20;99.90;;;;;;5051661;28;20036;-70
2020/12/10 09:18:11;;;;;;;35.92;16.48;;;2.20;99.90;;;;;;5050206;28;20059;-70
2020/12/10 09:20:36;;;;;;;37.17;16.77;;;2.20;99.90;;;;;;5053872;28;20334;-71
2020/12/10 09:23:03;;;;;;;35.55;16.08;;;2.10;99.90;;;;;;5068778;28;20017;-71
2020/12/10 09:25:28;;;;;;;33.33;15.45;;;2.20;99.90;;;;;;5064036;28;20017;-71
2020/12/10 09:27:54;;;;;;;35.08;15.18;;;2.20;99.90;;;;;;5052746;28;20162;-70
2020/12/10 09:30:19;;;;;;;34.28;15.23;;;2.30;99.90;;;;;;5060198;28;20025;-70
2020/12/10 09:32:45;;;;;;;32.25;15.02;;;2.30;99.90;;;;;;5062568;28;20033;-71
2020/12/10 09:35:12;;;;;;;31.35;15.18;;;2.30;99.90;;;;;;5057078;28;20029;-71
2020/12/10 09:37:40;;;;;;;30.85;15.35;;;2.30;99.90;;;;;;5049932;28;20057;-71
2020/12/10 09:40:09;;;;;;;36.33;15.90;;;2.30;99.90;;;;;;5061370;28;20119;-71
2020/12/10 09:42:43;;;;;;;38.03;16.60;;;2.30;99.90;;;;;;5056042;28;20020;-71
2020/12/10 09:45:08;;;;;;;32.97;15.95;;;2.30;99.90;;;;;;5058297;28;20377;-71
2020/12/10 09:47:34;;;;;;;37.40;16.38;;;2.30;99.90;;;;;;5051425;28;20019;-71
2020/12/10 09:50:00;;;;;;;33.30;15.32;;;2.30;99.90;;;;;;5052759;28;20033;-70
2020/12/10 09:52:27;;;;;;;31.98;16.00;;;2.30;99.90;;;;;;5062810;28;20095;-70
2020/12/10 09:57:29;;;;;;;34.08;16.83;;;2.50;99.90;;;;;;5055385;28;20394;-71
2020/12/10 10:00:03;;;;;;;38.67;17.45;;;2.50;99.90;;;;;;5064182;28;20062;-71
2020/12/10 10:02:28;;;;;;;32.45;16.02;;;2.60;99.90;;;;;;5058681;28;20013;-71
2020/12/10 10:04:54;;;;;;;35.03;15.95;;;2.60;99.90;;;;;;5065791;28;20512;-71
2020/12/10 10:07:20;;;;;;;35.28;16.85;;;2.50;99.90;;;;;;5061119;28;20036;-71
2020/12/10 10:09:46;;;;;;;29.42;16.15;;;2.50;99.90;;;;;;5064870;28;20507;-71
2020/12/10 10:12:12;;;;;;;36.25;15.88;;;2.50;99.90;;;;;;5062544;28;20029;-71
2020/12/10 10:14:39;;;;;;;35.92;16.75;;;2.50;99.90;;;;;;5065704;28;20389;-71
2020/12/10 10:17:13;;;;;;;38.63;17.92;;;2.60;99.90;;;;;;5066410;28;20017;-70
2020/12/10 10:19:39;;;;;;;31.52;15.20;;;2.60;99.90;;;;;;5065395;28;20031;-71
2020/12/10 10:22:05;;;;;;;33.88;15.98;;;2.60;99.90;;;;;;5061043;28;20109;-70
2020/12/10 10:24:31;;;;;;;32.83;17.27;;;2.50;99.90;;;;;;5065596;28;20389;-70
2020/12/10 10:26:58;;;;;;;35.83;17.08;;;2.50;99.90;;;;;;5059431;28;20493;-70
2020/12/10 10:29:23;;;;;;;33.00;16.70;;;2.50;99.90;;;;;;5059776;28;20610;-70
2020/12/10 10:31:50;;;;;;;33.63;16.60;;;2.50;99.90;;;;;;5056809;28;20032;-70
2020/12/10 10:34:16;;;;;;;36.10;18.23;;;2.50;99.90;;;;;;5069234;28;20107;-70
2020/12/10 10:36:42;;;;;;;37.60;18.50;;;2.60;99.90;;;;;;5064080;28;20381;-70
2020/12/10 10:39:07;;;;;;;34.85;16.92;;;2.60;99.90;;;;;;5058367;28;20029;-70
2020/12/10 10:41:39;;;;;;;34.83;17.20;;;2.60;99.90;;;;;;5060092;28;20408;-70
2020/12/10 10:44:05;;;;;;;34.53;16.92;;;2.60;99.90;;;;;;5057468;28;20036;-70
2020/12/10 10:46:30;;;;;;;33.53;17.08;;;2.70;99.90;;;;;;5058352;28;20104;-70
2020/12/10 10:48:56;;;;;;;39.08;18.13;;;2.70;99.90;;;;;;5060888;28;20407;-70
2020/12/10 10:51:22;;;;;;;34.47;16.80;;;2.80;99.90;;;;;;5060132;28;20101;-70
2020/12/10 10:53:47;;;;;;;33.08;15.30;;;2.70;99.90;;;;;;5058277;28;20029;-70
2020/12/10 10:56:13;;;;;;;34.97;18.08;;;2.70;99.90;;;;;;5058616;28;20025;-69
2020/12/10 10:58:39;;;;;;;33.03;17.30;;;2.80;99.90;;;;;;5057077;28;20037;-70
2020/12/10 11:01:05;;;;;;;37.40;17.65;;;2.80;99.90;;;;;;5057670;28;20051;-69
2020/12/10 11:03:30;;;;;;;32.75;16.20;;;2.90;99.90;;;;;;5059345;28;20073;-69
2020/12/10 11:05:56;;;;;;;36.70;17.73;;;2.90;99.90;;;;;;5057983;28;20393;-69
2020/12/10 11:08:21;;;;;;;32.13;15.73;;;2.90;99.90;;;;;;5058975;28;20028;-69
2020/12/10 11:10:48;;;;;;;31.48;15.43;;;2.90;99.90;;;;;;5055551;28;20024;-69
2020/12/10 11:13:13;;;;;;;31.70;16.77;;;2.90;99.90;;;;;;5058259;28;20490;-69
2020/12/10 11:15:39;;;;;;;30.77;15.98;;;3.00;99.90;;;;;;5061492;28;20081;-69
2020/12/10 11:18:04;;;;;;;34.95;17.45;;;3.00;99.90;;;;;;5063146;28;20028;-69
2020/12/10 11:20:30;;;;;;;33.15;16.80;;;3.00;99.90;;;;;;5055791;28;20036;-69
2020/12/10 11:22:56;;;;;;;35.42;16.92;;;3.10;99.90;;;;;;5067214;28;20028;-69
2020/12/10 11:25:21;;;;;;;33.35;17.08;;;3.10;99.90;;;;;;5068812;28;20389;-69
2020/12/10 11:27:47;;;;;;;34.45;17.88;;;3.10;99.90;;;;;;5060582;28;20029;-69
2020/12/10 11:30:12;;;;;;;34.35;17.55;;;3.20;99.90;;;;;;5055342;28;20044;-69
2020/12/10 11:32:38;;;;;;;36.67;18.13;;;3.20;99.90;;;;;;5055929;28;20425;-69
2020/12/10 11:35:04;;;;;;;37.15;18.50;;;3.20;99.90;;;;;;5054651;28;20033;-69
2020/12/10 11:37:29;;;;;;;37.28;19.40;;;3.20;99.90;;;;;;5059025;28;20067;-69
2020/12/10 11:39:57;;;;;;;38.65;18.45;;;3.20;99.90;;;;;;5051732;28;20127;-69
2020/12/10 11:42:23;;;;;;;32.92;17.17;;;3.20;99.90;;;;;;5051832;28;20029;-69
2020/12/10 11:44:49;;;;;;;33.80;17.98;;;3.20;99.90;;;;;;5053315;28;20132;-69
2020/12/10 11:47:15;;;;;;;35.15;17.33;;;3.30;99.90;;;;;;5057286;28;20024;-69
2020/12/10 11:49:40;;;;;;;33.35;16.88;;;3.30;99.90;;;;;;5057055;28;20024;-69
2020/12/10 11:52:06;;;;;;;33.53;16.33;;;3.30;99.90;;;;;;5057293;28;20485;-69
2020/12/10 11:54:32;;;;;;;31.70;17.88;;;3.20;99.90;;;;;;5054523;28;20036;-71
2020/12/10 11:56:59;;;;;;;31.02;16.10;;;3.20;99.90;;;;;;5058366;28;20046;-69
2020/12/10 11:59:25;;;;;;;32.97;17.80;;;3.30;99.90;;;;;;5056562;28;20482;-69
2020/12/10 12:01:51;;;;;;;28.63;15.68;;;3.40;99.90;;;;;;5054488;28;20028;-69
2020/12/10 12:04:17;;;;;;;28.38;16.55;;;3.40;99.90;;;;;;5050787;28;20040;-69
2020/12/10 12:06:44;;;;;;;34.13;17.70;;;3.30;99.90;;;;;;5050865;28;20021;-69
2020/12/10 12:09:10;;;;;;;34.53;16.77;;;3.40;99.90;;;;;;5051569;28;20025;-69
2020/12/10 12:11:36;;;;;;;33.17;16.70;;;3.50;99.90;;;;;;5051856;28;20478;-69
2020/12/10 12:14:02;;;;;;;33.80;17.48;;;3.50;99.90;;;;;;5052251;28;20021;-69
2020/12/10 12:16:27;;;;;;;31.65;17.63;;;3.40;99.90;;;;;;5051109;28;20500;-69
2020/12/10 12:18:53;;;;;;;31.58;18.05;;;3.40;99.90;;;;;;5054942;28;20374;-68
2020/12/10 12:21:26;;;;;;;31.20;15.80;;;3.50;99.90;;;;;;5051893;28;20033;-69
2020/12/10 12:23:51;;;;;;;;;;;3.50;99.90;;;;;;5050990;28;20017;-69
2020/12/10 12:26:18;;;;;;;32.85;16.30;;;3.50;99.90;;;;;;5050854;28;19953;-69
2020/12/10 12:28:48;;;;;;;32.08;16.60;;;3.60;99.90;;;;;;5051796;28;20576;-69
2020/12/10 12:31:15;;;;;;;32.50;16.45;;;3.50;99.90;;;;;;5059316;28;20039;-69
2020/12/10 12:33:41;;;;;;;35.17;17.55;;;3.60;99.90;;;;;;5054720;28;20013;-69
2020/12/10 12:36:10;;;;;;;29.42;15.77;;;3.70;99.90;;;;;;5051683;28;20394;-69
2020/12/10 12:38:35;;;;;;;30.92;16.17;;;3.70;99.90;;;;;;5065234;28;20024;-69
2020/12/10 12:41:01;;;;;;;31.63;18.05;;;3.70;99.90;;;;;;5054589;28;20063;-69
2020/12/10 12:43:27;;;;;;;32.70;17.85;;;3.80;99.90;;;;;;5055512;28;20460;-69